Аэропорт: Гостомель. Киев

ICAO: UKKM

METAR:
2018/09/19 07:30
UKKM 190730Z 22002MPS 170V270 CAVOK 21/13 Q1023 R15/CLRD70 NOSIG
METAR:
2018/09/19 06:09
TAF UKKM 190501Z 1906/2006 21004MPS 9999 SCT033 TX27/1911Z TN11/2003Z 
      TEMPO 1906/1916 23005G10MPS BKN004 
      BECMG 1916/1918 25003MPS 6000 SCT007